sensor_id;sensor_type;location;lat;lon;timestamp;P1;durP1;ratioP1;P2;durP2;ratioP2
66143;SDS011;52947;50.842;6.084;2023-05-07T00:00:57;4.93;;;2.90;;
66143;SDS011;52947;50.842;6.084;2023-05-07T00:03:25;5.47;;;2.90;;
66143;SDS011;52947;50.842;6.084;2023-05-07T00:05:55;4.97;;;2.87;;
66143;SDS011;52947;50.842;6.084;2023-05-07T00:10:51;6.22;;;3.72;;
66143;SDS011;52947;50.842;6.084;2023-05-07T00:13:19;5.25;;;3.03;;
66143;SDS011;52947;50.842;6.084;2023-05-07T00:15:47;6.03;;;3.65;;
66143;SDS011;52947;50.842;6.084;2023-05-07T00:18:15;4.68;;;3.50;;
66143;SDS011;52947;50.842;6.084;2023-05-07T00:20:43;7.57;;;3.40;;
66143;SDS011;52947;50.842;6.084;2023-05-07T00:23:12;3.95;;;2.90;;
66143;SDS011;52947;50.842;6.084;2023-05-07T00:28:07;5.28;;;3.80;;
66143;SDS011;52947;50.842;6.084;2023-05-07T00:30:35;6.15;;;3.78;;
66143;SDS011;52947;50.842;6.084;2023-05-07T00:33:03;7.72;;;3.53;;
66143;SDS011;52947;50.842;6.084;2023-05-07T00:35:31;4.40;;;3.47;;
66143;SDS011;52947;50.842;6.084;2023-05-07T00:37:59;4.68;;;3.35;;
66143;SDS011;52947;50.842;6.084;2023-05-07T00:40:28;5.78;;;3.10;;
66143;SDS011;52947;50.842;6.084;2023-05-07T00:45:25;4.77;;;2.97;;
66143;SDS011;52947;50.842;6.084;2023-05-07T00:47:54;6.18;;;2.90;;
66143;SDS011;52947;50.842;6.084;2023-05-07T00:50:24;6.93;;;3.30;;
66143;SDS011;52947;50.842;6.084;2023-05-07T00:52:53;4.00;;;3.30;;
66143;SDS011;52947;50.842;6.084;2023-05-07T00:55:21;5.07;;;2.92;;
66143;SDS011;52947;50.842;6.084;2023-05-07T00:57:51;5.05;;;2.45;;
66143;SDS011;52947;50.842;6.084;2023-05-07T01:00:19;5.03;;;2.30;;
66143;SDS011;52947;50.842;6.084;2023-05-07T01:02:47;4.43;;;2.05;;
66143;SDS011;52947;50.842;6.084;2023-05-07T01:05:16;3.65;;;1.98;;
66143;SDS011;52947;50.842;6.084;2023-05-07T01:07:46;5.65;;;2.38;;
66143;SDS011;52947;50.842;6.084;2023-05-07T01:12:44;4.65;;;2.47;;
66143;SDS011;52947;50.842;6.084;2023-05-07T01:17:42;3.03;;;2.13;;
66143;SDS011;52947;50.842;6.084;2023-05-07T01:20:17;5.05;;;2.08;;
66143;SDS011;52947;50.842;6.084;2023-05-07T01:22:48;5.20;;;2.00;;
66143;SDS011;52947;50.842;6.084;2023-05-07T01:25:16;4.18;;;2.08;;
66143;SDS011;52947;50.842;6.084;2023-05-07T01:27:49;5.15;;;2.80;;
66143;SDS011;52947;50.842;6.084;2023-05-07T01:30:20;5.15;;;2.20;;
66143;SDS011;52947;50.842;6.084;2023-05-07T01:32:51;5.45;;;1.92;;
66143;SDS011;52947;50.842;6.084;2023-05-07T01:35:27;4.63;;;2.70;;
66143;SDS011;52947;50.842;6.084;2023-05-07T01:38:01;3.92;;;2.55;;
66143;SDS011;52947;50.842;6.084;2023-05-07T01:40:30;3.70;;;2.60;;
66143;SDS011;52947;50.842;6.084;2023-05-07T01:42:59;7.87;;;2.60;;
66143;SDS011;52947;50.842;6.084;2023-05-07T01:45:28;4.45;;;2.72;;
66143;SDS011;52947;50.842;6.084;2023-05-07T01:47:56;3.80;;;2.40;;
66143;SDS011;52947;50.842;6.084;2023-05-07T01:50:26;3.90;;;2.30;;
66143;SDS011;52947;50.842;6.084;2023-05-07T01:52:55;4.30;;;2.67;;
66143;SDS011;52947;50.842;6.084;2023-05-07T01:55:24;6.80;;;2.38;;
66143;SDS011;52947;50.842;6.084;2023-05-07T01:57:52;6.45;;;2.28;;
66143;SDS011;52947;50.842;6.084;2023-05-07T02:00:20;6.15;;;2.10;;
66143;SDS011;52947;50.842;6.084;2023-05-07T02:02:48;7.68;;;2.55;;
66143;SDS011;52947;50.842;6.084;2023-05-07T02:05:28;6.65;;;2.70;;
66143;SDS011;52947;50.842;6.084;2023-05-07T02:08:02;10.10;;;2.60;;
66143;SDS011;52947;50.842;6.084;2023-05-07T02:10:32;3.80;;;2.50;;
66143;SDS011;52947;50.842;6.084;2023-05-07T02:12:59;3.38;;;2.13;;
66143;SDS011;52947;50.842;6.084;2023-05-07T02:15:28;3.17;;;2.20;;
66143;SDS011;52947;50.842;6.084;2023-05-07T02:17:59;6.03;;;2.25;;
66143;SDS011;52947;50.842;6.084;2023-05-07T02:20:29;6.03;;;2.25;;
66143;SDS011;52947;50.842;6.084;2023-05-07T02:22:57;4.18;;;2.30;;
66143;SDS011;52947;50.842;6.084;2023-05-07T02:25:27;3.60;;;2.30;;
66143;SDS011;52947;50.842;6.084;2023-05-07T02:27:57;3.55;;;2.10;;
66143;SDS011;52947;50.842;6.084;2023-05-07T02:30:37;4.25;;;2.58;;
66143;SDS011;52947;50.842;6.084;2023-05-07T02:33:05;4.18;;;2.80;;
66143;SDS011;52947;50.842;6.084;2023-05-07T02:38:02;5.25;;;2.50;;
66143;SDS011;52947;50.842;6.084;2023-05-07T02:43:02;3.55;;;2.47;;
66143;SDS011;52947;50.842;6.084;2023-05-07T02:47:59;6.10;;;2.42;;
66143;SDS011;52947;50.842;6.084;2023-05-07T02:50:27;5.38;;;2.28;;
66143;SDS011;52947;50.842;6.084;2023-05-07T02:52:55;2.55;;;2.22;;
66143;SDS011;52947;50.842;6.084;2023-05-07T02:55:23;5.10;;;2.50;;
66143;SDS011;52947;50.842;6.084;2023-05-07T02:57:51;8.52;;;2.20;;
66143;SDS011;52947;50.842;6.084;2023-05-07T03:00:21;4.97;;;2.53;;
66143;SDS011;52947;50.842;6.084;2023-05-07T03:03:09;7.75;;;3.95;;
66143;SDS011;52947;50.842;6.084;2023-05-07T03:05:38;3.90;;;2.60;;
66143;SDS011;52947;50.842;6.084;2023-05-07T03:08:06;3.25;;;2.58;;
66143;SDS011;52947;50.842;6.084;2023-05-07T03:10:34;5.70;;;2.10;;
66143;SDS011;52947;50.842;6.084;2023-05-07T03:13:02;4.70;;;2.47;;
66143;SDS011;52947;50.842;6.084;2023-05-07T03:15:32;3.13;;;2.30;;
66143;SDS011;52947;50.842;6.084;2023-05-07T03:18:00;4.85;;;2.10;;
66143;SDS011;52947;50.842;6.084;2023-05-07T03:20:28;3.03;;;2.38;;
66143;SDS011;52947;50.842;6.084;2023-05-07T03:22:56;3.17;;;2.40;;
66143;SDS011;52947;50.842;6.084;2023-05-07T03:25:24;8.15;;;2.28;;
66143;SDS011;52947;50.842;6.084;2023-05-07T03:27:52;3.40;;;2.05;;
66143;SDS011;52947;50.842;6.084;2023-05-07T03:30:24;3.60;;;2.20;;
66143;SDS011;52947;50.842;6.084;2023-05-07T03:32:53;2.88;;;1.90;;
66143;SDS011;52947;50.842;6.084;2023-05-07T03:37:49;3.03;;;1.92;;
66143;SDS011;52947;50.842;6.084;2023-05-07T03:40:17;2.38;;;2.10;;
66143;SDS011;52947;50.842;6.084;2023-05-07T03:42:49;4.63;;;2.15;;
66143;SDS011;52947;50.842;6.084;2023-05-07T03:45:19;6.25;;;2.40;;
66143;SDS011;52947;50.842;6.084;2023-05-07T03:47:57;3.92;;;1.88;;
66143;SDS011;52947;50.842;6.084;2023-05-07T03:50:25;4.55;;;2.10;;
66143;SDS011;52947;50.842;6.084;2023-05-07T03:52:53;3.88;;;2.05;;
66143;SDS011;52947;50.842;6.084;2023-05-07T03:57:55;6.28;;;2.25;;
66143;SDS011;52947;50.842;6.084;2023-05-07T04:00:26;5.38;;;2.30;;
66143;SDS011;52947;50.842;6.084;2023-05-07T04:02:59;4.38;;;1.95;;
66143;SDS011;52947;50.842;6.084;2023-05-07T04:05:30;5.32;;;2.47;;
66143;SDS011;52947;50.842;6.084;2023-05-07T04:08:01;2.65;;;1.95;;
66143;SDS011;52947;50.842;6.084;2023-05-07T04:10:36;3.70;;;2.42;;
66143;SDS011;52947;50.842;6.084;2023-05-07T04:13:08;4.82;;;2.03;;
66143;SDS011;52947;50.842;6.084;2023-05-07T04:15:36;4.70;;;2.42;;
66143;SDS011;52947;50.842;6.084;2023-05-07T04:18:09;4.90;;;1.95;;
66143;SDS011;52947;50.842;6.084;2023-05-07T04:20:39;4.50;;;2.30;;
66143;SDS011;52947;50.842;6.084;2023-05-07T04:23:10;3.25;;;2.15;;
66143;SDS011;52947;50.842;6.084;2023-05-07T04:25:39;3.30;;;2.10;;
66143;SDS011;52947;50.842;6.084;2023-05-07T04:28:28;2.67;;;2.10;;
66143;SDS011;52947;50.842;6.084;2023-05-07T04:30:57;2.80;;;1.90;;
66143;SDS011;52947;50.842;6.084;2023-05-07T04:33:26;2.45;;;2.05;;
66143;SDS011;52947;50.842;6.084;2023-05-07T04:35:56;2.78;;;2.00;;
66143;SDS011;52947;50.842;6.084;2023-05-07T04:38:24;2.80;;;2.20;;
66143;SDS011;52947;50.842;6.084;2023-05-07T04:40:53;2.40;;;1.80;;
66143;SDS011;52947;50.842;6.084;2023-05-07T04:43:23;3.10;;;1.95;;
66143;SDS011;52947;50.842;6.084;2023-05-07T04:45:51;3.55;;;2.38;;
66143;SDS011;52947;50.842;6.084;2023-05-07T04:48:22;5.85;;;2.17;;
66143;SDS011;52947;50.842;6.084;2023-05-07T04:50:53;5.60;;;2.60;;
66143;SDS011;52947;50.842;6.084;2023-05-07T04:53:22;4.40;;;2.60;;
66143;SDS011;52947;50.842;6.084;2023-05-07T04:55:54;2.85;;;2.00;;
66143;SDS011;52947;50.842;6.084;2023-05-07T04:58:24;2.92;;;2.05;;
66143;SDS011;52947;50.842;6.084;2023-05-07T05:00:52;4.07;;;2.50;;
66143;SDS011;52947;50.842;6.084;2023-05-07T05:03:20;4.35;;;2.10;;
66143;SDS011;52947;50.842;6.084;2023-05-07T05:05:50;4.35;;;2.13;;
66143;SDS011;52947;50.842;6.084;2023-05-07T05:08:22;5.82;;;2.03;;
66143;SDS011;52947;50.842;6.084;2023-05-07T05:13:17;6.72;;;2.33;;
66143;SDS011;52947;50.842;6.084;2023-05-07T05:15:45;8.25;;;2.20;;
66143;SDS011;52947;50.842;6.084;2023-05-07T05:18:14;3.47;;;2.30;;
66143;SDS011;52947;50.842;6.084;2023-05-07T05:20:41;3.53;;;2.60;;
66143;SDS011;52947;50.842;6.084;2023-05-07T05:23:11;6.20;;;2.20;;
66143;SDS011;52947;50.842;6.084;2023-05-07T05:25:40;3.83;;;2.22;;
66143;SDS011;52947;50.842;6.084;2023-05-07T05:28:10;5.47;;;2.10;;
66143;SDS011;52947;50.842;6.084;2023-05-07T05:30:38;7.07;;;2.50;;
66143;SDS011;52947;50.842;6.084;2023-05-07T05:33:07;7.40;;;2.45;;
66143;SDS011;52947;50.842;6.084;2023-05-07T05:35:35;6.65;;;2.50;;
66143;SDS011;52947;50.842;6.084;2023-05-07T05:38:06;3.65;;;2.17;;
66143;SDS011;52947;50.842;6.084;2023-05-07T05:40:33;4.40;;;2.45;;
66143;SDS011;52947;50.842;6.084;2023-05-07T05:43:03;4.47;;;2.30;;
66143;SDS011;52947;50.842;6.084;2023-05-07T05:45:31;4.65;;;2.47;;
66143;SDS011;52947;50.842;6.084;2023-05-07T05:47:59;6.70;;;2.50;;
66143;SDS011;52947;50.842;6.084;2023-05-07T05:50:28;9.82;;;2.72;;
66143;SDS011;52947;50.842;6.084;2023-05-07T05:52:56;5.32;;;2.35;;
66143;SDS011;52947;50.842;6.084;2023-05-07T05:55:27;7.10;;;2.60;;
66143;SDS011;52947;50.842;6.084;2023-05-07T05:57:55;4.38;;;2.80;;
66143;SDS011;52947;50.842;6.084;2023-05-07T06:00:25;14.75;;;4.07;;
66143;SDS011;52947;50.842;6.084;2023-05-07T06:03:01;5.40;;;2.72;;
66143;SDS011;52947;50.842;6.084;2023-05-07T06:05:29;4.57;;;2.58;;
66143;SDS011;52947;50.842;6.084;2023-05-07T06:07:57;6.03;;;2.33;;
66143;SDS011;52947;50.842;6.084;2023-05-07T06:10:29;5.28;;;2.42;;
66143;SDS011;52947;50.842;6.084;2023-05-07T06:12:57;6.65;;;2.60;;
66143;SDS011;52947;50.842;6.084;2023-05-07T06:15:27;5.00;;;2.63;;
66143;SDS011;52947;50.842;6.084;2023-05-07T06:17:56;5.90;;;2.58;;
66143;SDS011;52947;50.842;6.084;2023-05-07T06:20:24;7.03;;;2.53;;
66143;SDS011;52947;50.842;6.084;2023-05-07T06:22:52;9.07;;;2.92;;
66143;SDS011;52947;50.842;6.084;2023-05-07T06:25:20;6.70;;;2.92;;
66143;SDS011;52947;50.842;6.084;2023-05-07T06:27:48;7.90;;;3.25;;
66143;SDS011;52947;50.842;6.084;2023-05-07T06:30:16;5.25;;;2.95;;
66143;SDS011;52947;50.842;6.084;2023-05-07T06:32:45;8.40;;;3.53;;
66143;SDS011;52947;50.842;6.084;2023-05-07T06:35:14;11.35;;;4.60;;
66143;SDS011;52947;50.842;6.084;2023-05-07T06:37:41;8.00;;;3.45;;
66143;SDS011;52947;50.842;6.084;2023-05-07T06:40:15;6.43;;;3.40;;
66143;SDS011;52947;50.842;6.084;2023-05-07T06:42:45;6.35;;;3.17;;
66143;SDS011;52947;50.842;6.084;2023-05-07T06:45:42;7.47;;;3.47;;
66143;SDS011;52947;50.842;6.084;2023-05-07T06:48:11;6.77;;;3.33;;
66143;SDS011;52947;50.842;6.084;2023-05-07T06:50:55;5.60;;;2.80;;
66143;SDS011;52947;50.842;6.084;2023-05-07T06:53:25;10.23;;;3.20;;
66143;SDS011;52947;50.842;6.084;2023-05-07T06:55:55;7.22;;;3.17;;
66143;SDS011;52947;50.842;6.084;2023-05-07T06:58:24;8.85;;;3.22;;
66143;SDS011;52947;50.842;6.084;2023-05-07T07:00:52;7.45;;;3.45;;
66143;SDS011;52947;50.842;6.084;2023-05-07T07:03:22;7.32;;;2.80;;
66143;SDS011;52947;50.842;6.084;2023-05-07T07:05:51;7.28;;;3.58;;
66143;SDS011;52947;50.842;6.084;2023-05-07T07:10:47;9.07;;;3.67;;
66143;SDS011;52947;50.842;6.084;2023-05-07T07:13:15;8.27;;;3.17;;
66143;SDS011;52947;50.842;6.084;2023-05-07T07:15:44;8.75;;;3.88;;
66143;SDS011;52947;50.842;6.084;2023-05-07T07:18:12;6.53;;;3.60;;
66143;SDS011;52947;50.842;6.084;2023-05-07T07:20:42;9.82;;;4.15;;
66143;SDS011;52947;50.842;6.084;2023-05-07T07:23:12;10.65;;;3.72;;
66143;SDS011;52947;50.842;6.084;2023-05-07T07:25:40;9.15;;;3.70;;
66143;SDS011;52947;50.842;6.084;2023-05-07T07:28:09;8.65;;;4.07;;
66143;SDS011;52947;50.842;6.084;2023-05-07T07:30:38;7.18;;;3.30;;
66143;SDS011;52947;50.842;6.084;2023-05-07T07:33:06;8.10;;;3.45;;
66143;SDS011;52947;50.842;6.084;2023-05-07T07:35:36;8.50;;;3.65;;
66143;SDS011;52947;50.842;6.084;2023-05-07T07:38:06;9.60;;;3.38;;
66143;SDS011;52947;50.842;6.084;2023-05-07T07:40:34;7.35;;;3.33;;
66143;SDS011;52947;50.842;6.084;2023-05-07T07:43:05;9.30;;;3.90;;
66143;SDS011;52947;50.842;6.084;2023-05-07T07:45:33;11.52;;;4.70;;
66143;SDS011;52947;50.842;6.084;2023-05-07T07:48:02;8.27;;;4.07;;
66143;SDS011;52947;50.842;6.084;2023-05-07T07:50:34;10.43;;;4.75;;
66143;SDS011;52947;50.842;6.084;2023-05-07T07:55:43;11.68;;;4.95;;
66143;SDS011;52947;50.842;6.084;2023-05-07T07:58:15;9.73;;;4.18;;
66143;SDS011;52947;50.842;6.084;2023-05-07T08:00:43;8.00;;;3.83;;
66143;SDS011;52947;50.842;6.084;2023-05-07T08:03:12;7.95;;;3.85;;
66143;SDS011;52947;50.842;6.084;2023-05-07T08:05:44;7.65;;;3.78;;
66143;SDS011;52947;50.842;6.084;2023-05-07T08:08:12;9.07;;;3.45;;
66143;SDS011;52947;50.842;6.084;2023-05-07T08:10:43;7.38;;;3.15;;
66143;SDS011;52947;50.842;6.084;2023-05-07T08:13:18;6.32;;;2.67;;
66143;SDS011;52947;50.842;6.084;2023-05-07T08:15:46;8.50;;;3.03;;
66143;SDS011;52947;50.842;6.084;2023-05-07T08:18:15;6.25;;;3.10;;
66143;SDS011;52947;50.842;6.084;2023-05-07T08:20:44;6.55;;;3.28;;
66143;SDS011;52947;50.842;6.084;2023-05-07T08:23:16;8.95;;;3.20;;
66143;SDS011;52947;50.842;6.084;2023-05-07T08:25:46;8.52;;;2.53;;
66143;SDS011;52947;50.842;6.084;2023-05-07T08:28:15;6.00;;;2.65;;
66143;SDS011;52947;50.842;6.084;2023-05-07T08:30:43;5.63;;;2.60;;
66143;SDS011;52947;50.842;6.084;2023-05-07T08:33:11;5.10;;;2.80;;
66143;SDS011;52947;50.842;6.084;2023-05-07T08:35:39;6.22;;;2.35;;
66143;SDS011;52947;50.842;6.084;2023-05-07T08:38:09;6.20;;;2.20;;
66143;SDS011;52947;50.842;6.084;2023-05-07T08:40:38;5.90;;;3.40;;
66143;SDS011;52947;50.842;6.084;2023-05-07T08:43:14;2.83;;;1.75;;
66143;SDS011;52947;50.842;6.084;2023-05-07T08:45:43;3.90;;;1.83;;
66143;SDS011;52947;50.842;6.084;2023-05-07T08:48:15;2.67;;;1.63;;
66143;SDS011;52947;50.842;6.084;2023-05-07T08:50:51;3.17;;;1.58;;
66143;SDS011;52947;50.842;6.084;2023-05-07T08:53:19;4.35;;;1.73;;
66143;SDS011;52947;50.842;6.084;2023-05-07T08:55:49;2.97;;;1.60;;
66143;SDS011;52947;50.842;6.084;2023-05-07T08:58:18;2.13;;;1.30;;
66143;SDS011;52947;50.842;6.084;2023-05-07T09:00:46;2.10;;;1.25;;
66143;SDS011;52947;50.842;6.084;2023-05-07T09:03:15;2.83;;;1.40;;
66143;SDS011;52947;50.842;6.084;2023-05-07T09:05:47;2.50;;;1.42;;
66143;SDS011;52947;50.842;6.084;2023-05-07T09:08:17;4.80;;;1.42;;
66143;SDS011;52947;50.842;6.084;2023-05-07T09:10:47;1.63;;;1.42;;
66143;SDS011;52947;50.842;6.084;2023-05-07T09:13:16;3.67;;;1.48;;
66143;SDS011;52947;50.842;6.084;2023-05-07T09:15:46;2.88;;;1.77;;
66143;SDS011;52947;50.842;6.084;2023-05-07T09:18:15;3.00;;;1.50;;
66143;SDS011;52947;50.842;6.084;2023-05-07T09:20:46;2.92;;;1.67;;
66143;SDS011;52947;50.842;6.084;2023-05-07T09:23:16;2.83;;;1.88;;
66143;SDS011;52947;50.842;6.084;2023-05-07T09:25:44;2.33;;;1.23;;
66143;SDS011;52947;50.842;6.084;2023-05-07T09:28:19;1.77;;;1.45;;
66143;SDS011;52947;50.842;6.084;2023-05-07T09:30:48;2.10;;;1.30;;
66143;SDS011;52947;50.842;6.084;2023-05-07T09:33:18;3.15;;;1.60;;
66143;SDS011;52947;50.842;6.084;2023-05-07T09:35:50;3.15;;;1.40;;
66143;SDS011;52947;50.842;6.084;2023-05-07T09:38:20;2.15;;;1.42;;
66143;SDS011;52947;50.842;6.084;2023-05-07T09:41:01;1.58;;;1.40;;
66143;SDS011;52947;50.842;6.084;2023-05-07T09:43:32;3.28;;;1.75;;
66143;SDS011;52947;50.842;6.084;2023-05-07T09:46:05;3.88;;;1.70;;
66143;SDS011;52947;50.842;6.084;2023-05-07T09:48:36;2.90;;;1.60;;
66143;SDS011;52947;50.842;6.084;2023-05-07T09:51:09;2.55;;;1.58;;
66143;SDS011;52947;50.842;6.084;2023-05-07T09:53:43;2.55;;;1.50;;
66143;SDS011;52947;50.842;6.084;2023-05-07T09:56:13;3.72;;;1.70;;
66143;SDS011;52947;50.842;6.084;2023-05-07T09:58:42;4.50;;;1.52;;
66143;SDS011;52947;50.842;6.084;2023-05-07T10:01:12;2.25;;;1.45;;
66143;SDS011;52947;50.842;6.084;2023-05-07T10:03:42;3.05;;;1.38;;
66143;SDS011;52947;50.842;6.084;2023-05-07T10:06:12;3.50;;;1.52;;
66143;SDS011;52947;50.842;6.084;2023-05-07T10:08:40;3.05;;;1.60;;
66143;SDS011;52947;50.842;6.084;2023-05-07T10:11:10;2.28;;;1.50;;
66143;SDS011;52947;50.842;6.084;2023-05-07T10:13:39;3.95;;;1.70;;
66143;SDS011;52947;50.842;6.084;2023-05-07T10:16:09;1.98;;;1.40;;
66143;SDS011;52947;50.842;6.084;2023-05-07T10:18:45;3.65;;;1.65;;
66143;SDS011;52947;50.842;6.084;2023-05-07T10:21:20;3.83;;;1.90;;
66143;SDS011;52947;50.842;6.084;2023-05-07T10:23:53;4.20;;;1.58;;
66143;SDS011;52947;50.842;6.084;2023-05-07T10:26:28;2.03;;;1.33;;
66143;SDS011;52947;50.842;6.084;2023-05-07T10:28:58;2.95;;;1.52;;
66143;SDS011;52947;50.842;6.084;2023-05-07T10:31:34;6.00;;;1.70;;
66143;SDS011;52947;50.842;6.084;2023-05-07T10:34:14;5.82;;;1.80;;
66143;SDS011;52947;50.842;6.084;2023-05-07T10:36:45;2.42;;;1.70;;
66143;SDS011;52947;50.842;6.084;2023-05-07T10:39:14;6.22;;;1.85;;
66143;SDS011;52947;50.842;6.084;2023-05-07T10:41:42;4.25;;;1.75;;
66143;SDS011;52947;50.842;6.084;2023-05-07T10:44:10;2.10;;;1.55;;
66143;SDS011;52947;50.842;6.084;2023-05-07T10:46:38;2.17;;;1.63;;
66143;SDS011;52947;50.842;6.084;2023-05-07T10:49:18;6.63;;;1.50;;
66143;SDS011;52947;50.842;6.084;2023-05-07T10:52:11;5.68;;;2.03;;
66143;SDS011;52947;50.842;6.084;2023-05-07T10:54:46;3.03;;;1.65;;
66143;SDS011;52947;50.842;6.084;2023-05-07T10:57:33;5.10;;;1.90;;
66143;SDS011;52947;50.842;6.084;2023-05-07T11:03:21;5.90;;;2.00;;
66143;SDS011;52947;50.842;6.084;2023-05-07T11:09:06;7.18;;;2.10;;
66143;SDS011;52947;50.842;6.084;2023-05-07T11:11:44;7.13;;;2.10;;
66143;SDS011;52947;50.842;6.084;2023-05-07T11:17:14;8.98;;;5.07;;
66143;SDS011;52947;50.842;6.084;2023-05-07T11:19:48;8.40;;;4.72;;
66143;SDS011;52947;50.842;6.084;2023-05-07T11:25:21;6.30;;;2.00;;
66143;SDS011;52947;50.842;6.084;2023-05-07T11:27:55;2.85;;;1.60;;
66143;SDS011;52947;50.842;6.084;2023-05-07T11:32:53;3.75;;;2.08;;
66143;SDS011;52947;50.842;6.084;2023-05-07T11:35:22;8.33;;;2.30;;
66143;SDS011;52947;50.842;6.084;2023-05-07T11:37:57;4.85;;;2.53;;
66143;SDS011;52947;50.842;6.084;2023-05-07T11:40:28;4.63;;;2.60;;
66143;SDS011;52947;50.842;6.084;2023-05-07T11:42:56;4.63;;;2.80;;
66143;SDS011;52947;50.842;6.084;2023-05-07T11:45:24;4.68;;;2.70;;
66143;SDS011;52947;50.842;6.084;2023-05-07T11:47:52;4.82;;;2.90;;
66143;SDS011;52947;50.842;6.084;2023-05-07T11:50:20;6.05;;;2.78;;
66143;SDS011;52947;50.842;6.084;2023-05-07T11:52:50;9.80;;;2.90;;
66143;SDS011;52947;50.842;6.084;2023-05-07T11:55:19;7.65;;;2.55;;
66143;SDS011;52947;50.842;6.084;2023-05-07T11:57:48;4.13;;;2.20;;
66143;SDS011;52947;50.842;6.084;2023-05-07T12:00:17;7.03;;;2.75;;
66143;SDS011;52947;50.842;6.084;2023-05-07T12:02:45;9.43;;;2.85;;
66143;SDS011;52947;50.842;6.084;2023-05-07T12:05:13;4.88;;;2.55;;
66143;SDS011;52947;50.842;6.084;2023-05-07T12:07:41;4.70;;;2.15;;
66143;SDS011;52947;50.842;6.084;2023-05-07T12:10:09;3.80;;;2.45;;
66143;SDS011;52947;50.842;6.084;2023-05-07T12:12:40;3.97;;;2.20;;
66143;SDS011;52947;50.842;6.084;2023-05-07T12:15:09;6.00;;;3.22;;
66143;SDS011;52947;50.842;6.084;2023-05-07T12:17:38;4.45;;;2.58;;
66143;SDS011;52947;50.842;6.084;2023-05-07T12:20:07;6.70;;;2.92;;
66143;SDS011;52947;50.842;6.084;2023-05-07T12:25:03;9.75;;;3.25;;
66143;SDS011;52947;50.842;6.084;2023-05-07T12:27:33;5.07;;;3.47;;
66143;SDS011;52947;50.842;6.084;2023-05-07T12:30:06;7.45;;;3.33;;
66143;SDS011;52947;50.842;6.084;2023-05-07T12:32:37;6.65;;;3.92;;
66143;SDS011;52947;50.842;6.084;2023-05-07T12:35:06;7.50;;;4.38;;
66143;SDS011;52947;50.842;6.084;2023-05-07T12:37:34;9.00;;;4.45;;
66143;SDS011;52947;50.842;6.084;2023-05-07T12:40:03;9.27;;;4.57;;
66143;SDS011;52947;50.842;6.084;2023-05-07T12:42:35;8.20;;;4.60;;
66143;SDS011;52947;50.842;6.084;2023-05-07T12:45:11;8.13;;;4.03;;
66143;SDS011;52947;50.842;6.084;2023-05-07T12:47:43;6.75;;;3.72;;
66143;SDS011;52947;50.842;6.084;2023-05-07T12:50:12;7.55;;;4.10;;
66143;SDS011;52947;50.842;6.084;2023-05-07T12:52:40;7.17;;;3.77;;
66143;SDS011;52947;50.842;6.084;2023-05-07T12:55:08;5.78;;;3.00;;
66143;SDS011;52947;50.842;6.084;2023-05-07T12:57:39;5.65;;;2.88;;
66143;SDS011;52947;50.842;6.084;2023-05-07T13:00:09;6.00;;;2.78;;
66143;SDS011;52947;50.842;6.084;2023-05-07T13:02:39;5.90;;;3.15;;
66143;SDS011;52947;50.842;6.084;2023-05-07T13:05:11;5.70;;;2.67;;
66143;SDS011;52947;50.842;6.084;2023-05-07T13:07:39;5.57;;;3.25;;
66143;SDS011;52947;50.842;6.084;2023-05-07T13:10:08;9.68;;;3.25;;
66143;SDS011;52947;50.842;6.084;2023-05-07T13:15:05;5.38;;;2.45;;
66143;SDS011;52947;50.842;6.084;2023-05-07T13:17:35;8.43;;;2.67;;
66143;SDS011;52947;50.842;6.084;2023-05-07T13:20:03;3.80;;;2.28;;
66143;SDS011;52947;50.842;6.084;2023-05-07T13:25:00;4.57;;;2.25;;
66143;SDS011;52947;50.842;6.084;2023-05-07T13:27:28;5.25;;;2.45;;
66143;SDS011;52947;50.842;6.084;2023-05-07T13:29:57;5.88;;;2.35;;
66143;SDS011;52947;50.842;6.084;2023-05-07T13:32:25;3.03;;;2.35;;
66143;SDS011;52947;50.842;6.084;2023-05-07T13:34:54;4.22;;;2.72;;
66143;SDS011;52947;50.842;6.084;2023-05-07T13:37:22;4.10;;;2.33;;
66143;SDS011;52947;50.842;6.084;2023-05-07T13:39:49;4.65;;;2.20;;
66143;SDS011;52947;50.842;6.084;2023-05-07T13:42:17;7.22;;;2.50;;
66143;SDS011;52947;50.842;6.084;2023-05-07T13:44:45;5.78;;;2.22;;
66143;SDS011;52947;50.842;6.084;2023-05-07T13:47:13;5.57;;;2.40;;
66143;SDS011;52947;50.842;6.084;2023-05-07T13:49:41;4.63;;;2.10;;
66143;SDS011;52947;50.842;6.084;2023-05-07T13:52:10;3.47;;;2.40;;
66143;SDS011;52947;50.842;6.084;2023-05-07T13:54:38;5.68;;;2.60;;
66143;SDS011;52947;50.842;6.084;2023-05-07T13:57:06;7.88;;;2.38;;
66143;SDS011;52947;50.842;6.084;2023-05-07T13:59:34;4.65;;;2.67;;
66143;SDS011;52947;50.842;6.084;2023-05-07T14:02:02;3.15;;;2.20;;
66143;SDS011;52947;50.842;6.084;2023-05-07T14:04:30;4.40;;;2.53;;
66143;SDS011;52947;50.842;6.084;2023-05-07T14:06:58;5.43;;;2.53;;
66143;SDS011;52947;50.842;6.084;2023-05-07T14:09:27;7.15;;;2.97;;
66143;SDS011;52947;50.842;6.084;2023-05-07T14:11:55;4.38;;;2.80;;
66143;SDS011;52947;50.842;6.084;2023-05-07T14:14:23;4.40;;;2.55;;
66143;SDS011;52947;50.842;6.084;2023-05-07T14:16:51;4.88;;;2.63;;
66143;SDS011;52947;50.842;6.084;2023-05-07T14:19:19;4.38;;;2.70;;
66143;SDS011;52947;50.842;6.084;2023-05-07T14:21:49;6.85;;;3.22;;
66143;SDS011;52947;50.842;6.084;2023-05-07T14:24:16;5.75;;;2.80;;
66143;SDS011;52947;50.842;6.084;2023-05-07T14:27:04;5.03;;;2.55;;
66143;SDS011;52947;50.842;6.084;2023-05-07T14:29:33;5.07;;;3.15;;
66143;SDS011;52947;50.842;6.084;2023-05-07T14:32:01;4.68;;;2.90;;
66143;SDS011;52947;50.842;6.084;2023-05-07T14:34:30;6.22;;;2.70;;
66143;SDS011;52947;50.842;6.084;2023-05-07T14:36:59;4.55;;;2.45;;
66143;SDS011;52947;50.842;6.084;2023-05-07T14:39:27;2.75;;;2.20;;
66143;SDS011;52947;50.842;6.084;2023-05-07T14:41:56;4.53;;;2.43;;
66143;SDS011;52947;50.842;6.084;2023-05-07T14:44:26;6.18;;;2.15;;
66143;SDS011;52947;50.842;6.084;2023-05-07T14:46:54;3.40;;;2.15;;
66143;SDS011;52947;50.842;6.084;2023-05-07T14:49:21;4.60;;;2.45;;
66143;SDS011;52947;50.842;6.084;2023-05-07T14:51:50;6.37;;;2.43;;
66143;SDS011;52947;50.842;6.084;2023-05-07T14:54:17;7.10;;;2.83;;
66143;SDS011;52947;50.842;6.084;2023-05-07T14:56:45;6.07;;;2.42;;
66143;SDS011;52947;50.842;6.084;2023-05-07T14:59:13;4.38;;;2.30;;
66143;SDS011;52947;50.842;6.084;2023-05-07T15:01:45;3.67;;;2.20;;
66143;SDS011;52947;50.842;6.084;2023-05-07T15:04:12;3.17;;;1.90;;
66143;SDS011;52947;50.842;6.084;2023-05-07T15:06:41;6.55;;;2.47;;
66143;SDS011;52947;50.842;6.084;2023-05-07T15:09:09;4.57;;;2.50;;
66143;SDS011;52947;50.842;6.084;2023-05-07T15:11:37;3.83;;;2.70;;
66143;SDS011;52947;50.842;6.084;2023-05-07T15:14:06;4.20;;;2.70;;
66143;SDS011;52947;50.842;6.084;2023-05-07T15:16:34;4.95;;;2.60;;
66143;SDS011;52947;50.842;6.084;2023-05-07T15:19:03;5.15;;;2.33;;
66143;SDS011;52947;50.842;6.084;2023-05-07T15:21:31;5.78;;;2.63;;
66143;SDS011;52947;50.842;6.084;2023-05-07T15:24:01;7.07;;;2.22;;
66143;SDS011;52947;50.842;6.084;2023-05-07T15:26:29;7.47;;;2.33;;
66143;SDS011;52947;50.842;6.084;2023-05-07T15:28:57;3.65;;;2.42;;
66143;SDS011;52947;50.842;6.084;2023-05-07T15:31:25;3.30;;;2.38;;
66143;SDS011;52947;50.842;6.084;2023-05-07T15:33:53;5.03;;;2.28;;
66143;SDS011;52947;50.842;6.084;2023-05-07T15:36:24;4.60;;;2.70;;
66143;SDS011;52947;50.842;6.084;2023-05-07T15:38:51;8.23;;;2.88;;
66143;SDS011;52947;50.842;6.084;2023-05-07T15:41:20;2.78;;;2.00;;
66143;SDS011;52947;50.842;6.084;2023-05-07T15:43:49;4.15;;;2.10;;
66143;SDS011;52947;50.842;6.084;2023-05-07T15:46:19;4.45;;;2.40;;
66143;SDS011;52947;50.842;6.084;2023-05-07T15:48:50;5.82;;;2.10;;
66143;SDS011;52947;50.842;6.084;2023-05-07T15:51:18;4.05;;;2.00;;
66143;SDS011;52947;50.842;6.084;2023-05-07T15:53:48;3.28;;;2.00;;
66143;SDS011;52947;50.842;6.084;2023-05-07T15:56:17;6.95;;;2.08;;
66143;SDS011;52947;50.842;6.084;2023-05-07T15:58:45;5.93;;;2.25;;